»·PEaware :: N314PW KCRQ-KMYF

N314PW :: KCRQ-KMYF

FLIGHT INFORMATION

Flight Status: Arrived
Operator: Privately registered:
United States
More flights under this callsign
Pilot: Todd P. (5750)
Aircraft: BEECH AIRCRAFT BONANZA
(BE36)
More flights by this aircraft type
Origin: KCRQ McClellan-Palomar
United States
Destination: KMYF Montgomery
United States
More flights between these airports :: More routes between these airports
Route: +MZB
File this flight plan on PilotEdge
Remarks:
Altitude:
(Current/Filed)
3,000ft
Speed:
(Current/Filed)
140kts
Departed: 02-Jul-15 06:37 PM
Arrived: 02-Jul-15 07:46 PM
Distance/Time
Traveled:
20nm/1:09
Distance/Time
To Go:
Arrived

Flight Plot

Page will automatically refresh every two minutes.


Map Options




Map Legend


Flown Route
Filed Route
Departure Airport
Arrival Airport
Navaid (VOR, NDB)
Fix

Horizontal Profiles

Position Reports

Time Latitude Longitude Heading Altitude Ground
Speed
02-Jul-15 18:20 33.127359 -117.275817 258 335ft 0kts
02-Jul-15 18:21 33.127359 -117.275817 258 335ft 0kts
02-Jul-15 18:22 33.127359 -117.275817 258 335ft 0kts
02-Jul-15 18:23 33.127359 -117.275817 258 335ft 0kts
02-Jul-15 18:24 33.127359 -117.275817 258 335ft 0kts
02-Jul-15 18:25 33.127359 -117.275817 258 335ft 0kts
02-Jul-15 18:26 33.127359 -117.275817 258 335ft 0kts
02-Jul-15 18:27 33.127359 -117.275817 258 335ft 0kts
02-Jul-15 18:28 33.127359 -117.275817 258 335ft 0kts
02-Jul-15 18:29 33.127359 -117.275817 258 335ft 0kts
02-Jul-15 18:30 33.127449 -117.276029 310 335ft 10kts
02-Jul-15 18:31 33.128560 -117.272590 109 335ft 14kts
02-Jul-15 18:32 33.128676 -117.272099 336 335ft 0kts
02-Jul-15 18:33 33.128676 -117.272099 336 335ft 0kts
02-Jul-15 18:34 33.128676 -117.272099 336 335ft 0kts
02-Jul-15 18:35 33.128924 -117.272201 349 335ft 12kts
02-Jul-15 18:36 33.125427 -117.293547 258 821ft 100kts
02-Jul-15 18:37 33.123927 -117.325715 269 2152ft 97kts
02-Jul-15 18:38 33.117451 -117.356920 202 3057ft 122kts
02-Jul-15 18:39 33.082821 -117.337188 145 3569ft 129kts
02-Jul-15 18:40 33.055335 -117.313831 168 4061ft 147kts
02-Jul-15 18:41 33.013029 -117.299946 164 4046ft 166kts
02-Jul-15 18:42 32.970071 -117.285847 164 3986ft 166kts
02-Jul-15 18:43 32.926875 -117.271850 164 3986ft 160kts
02-Jul-15 18:44 32.883840 -117.257985 165 3986ft 162kts
02-Jul-15 18:45 32.865068 -117.218703 95 4180ft 152kts
02-Jul-15 18:46 32.855012 -117.168634 104 4187ft 161kts
02-Jul-15 18:47 32.842769 -117.117516 104 4190ft 163kts
02-Jul-15 18:48 32.830318 -117.065883 104 4185ft 164kts
02-Jul-15 18:49 32.817911 -117.014453 104 4187ft 164kts
02-Jul-15 18:50 32.805807 -116.964363 104 4191ft 163kts
02-Jul-15 18:51 32.793272 -116.912585 104 4193ft 162kts
02-Jul-15 18:52 32.780965 -116.862425 108 4231ft 150kts
02-Jul-15 18:53 32.747225 -116.864216 210 4180ft 141kts
02-Jul-15 18:54 32.723763 -116.892097 287 4165ft 121kts
02-Jul-15 18:55 32.733592 -116.930991 293 3908ft 116kts
02-Jul-15 18:56 32.746901 -116.962215 293 3452ft 98kts
02-Jul-15 18:57 32.757459 -116.991873 305 2991ft 88kts
02-Jul-15 18:58 32.768230 -117.017663 299 2484ft 83kts
02-Jul-15 18:59 32.777673 -117.043171 302 2257ft 88kts
02-Jul-15 19:00 32.789023 -117.069827 298 1852ft 91kts
02-Jul-15 19:01 32.799645 -117.095593 296 1491ft 85kts
02-Jul-15 19:02 32.808445 -117.121099 293 974ft 84kts
02-Jul-15 19:03 32.816999 -117.146499 285 1358ft 84kts
02-Jul-15 19:04 32.819758 -117.174381 278 2525ft 76kts
02-Jul-15 19:05 32.824450 -117.204610 281 3184ft 128kts
02-Jul-15 19:06 32.845150 -117.239179 325 2973ft 141kts
02-Jul-15 19:07 32.878130 -117.260106 337 2998ft 132kts
02-Jul-15 19:08 32.911868 -117.275649 339 2999ft 131kts
02-Jul-15 19:09 32.945713 -117.290888 339 2999ft 132kts
02-Jul-15 19:10 32.980280 -117.306427 339 2997ft 134kts
02-Jul-15 19:11 33.013206 -117.321235 339 2992ft 128kts
02-Jul-15 19:12 33.039512 -117.333554 325 3364ft 121kts
02-Jul-15 19:13 33.032026 -117.362648 180 3898ft 122kts
02-Jul-15 19:14 32.993323 -117.346888 159 4030ft 143kts
02-Jul-15 19:15 32.972012 -117.324595 76 3987ft 129kts
02-Jul-15 19:16 33.004902 -117.321329 345 3991ft 118kts
02-Jul-15 19:17 33.031061 -117.328567 345 3999ft 115kts
02-Jul-15 19:18 33.044226 -117.352575 230 3999ft 110kts
02-Jul-15 19:19 33.015196 -117.350703 161 4000ft 115kts
02-Jul-15 19:20 32.990321 -117.335862 120 4296ft 87kts
02-Jul-15 19:21 32.970088 -117.320339 158 4932ft 108kts
02-Jul-15 19:22 32.934384 -117.302505 159 5068ft 164kts
02-Jul-15 19:23 32.890500 -117.280682 159 4975ft 176kts
02-Jul-15 19:24 32.845256 -117.257316 158 4978ft 179kts
02-Jul-15 19:25 32.800798 -117.234892 158 4964ft 167kts
02-Jul-15 19:26 32.795464 -117.191224 61 4978ft 153kts
02-Jul-15 19:27 32.791583 -117.142043 103 4978ft 158kts
02-Jul-15 19:28 32.782949 -117.091482 98 4978ft 157kts
02-Jul-15 19:29 32.774565 -117.040619 98 4981ft 158kts
02-Jul-15 19:30 32.770706 -116.990589 88 4986ft 158kts
02-Jul-15 19:31 32.771806 -116.939416 57 4983ft 162kts
02-Jul-15 19:32 32.808732 -116.905630 31 4993ft 173kts
02-Jul-15 19:33 32.828802 -116.861780 127 5009ft 188kts
02-Jul-15 19:34 32.782633 -116.848168 204 4966ft 170kts
02-Jul-15 19:35 32.744574 -116.871526 200 5001ft 167kts
02-Jul-15 19:36 32.710295 -116.897114 279 4720ft 145kts
02-Jul-15 19:37 32.730873 -116.934344 308 4335ft 139kts
02-Jul-15 19:38 32.751324 -116.970169 306 3514ft 96kts
02-Jul-15 19:39 32.760180 -116.995687 288 3047ft 82kts
02-Jul-15 19:40 32.769016 -117.019820 297 2588ft 81kts
02-Jul-15 19:41 32.778890 -117.044206 296 2136ft 82kts
02-Jul-15 19:42 32.788273 -117.069540 296 1655ft 82kts
02-Jul-15 19:43 32.798842 -117.094252 293 1217ft 85kts
02-Jul-15 19:44 32.808354 -117.119276 295 720ft 90kts
02-Jul-15 19:45 32.816339 -117.140352 260 430ft 7kts
02-Jul-15 19:46 32.815868 -117.141148 187 430ft 0kts
02-Jul-15 19:47 32.814766 -117.142054 115 430ft 12kts

Navigation Log

Ident Type
Flight plan parsing failed, navigation log unavailable